Time,TemperatureF,DewpointF,PressureIn,WindDirection,WindDirectionDegrees,WindSpeedMPH,WindSpeedGustMPH,Humidity,HourlyPrecipIn,Conditions,Clouds,dailyrainin,SoftwareType,DateUTC
2013-07-10 00:00:00,56.3,46.0,30.50,WNW,285,0.0,0.0,66,0.00,,,-99.99,wx200d/1.3,2013-07-10 07:00:00,
2013-07-10 00:15:00,56.3,46.0,30.50,East,86,0.0,0.0,68,0.00,,,-99.99,wx200d/1.3,2013-07-10 07:15:00,
2013-07-10 00:30:00,56.3,46.0,30.50,West,264,0.0,0.0,68,0.00,,,-99.99,wx200d/1.3,2013-07-10 07:30:00,
2013-07-10 00:45:00,56.5,46.0,30.50,West,265,0.0,0.0,69,0.00,,,-99.99,wx200d/1.3,2013-07-10 07:45:00,
2013-07-10 01:00:00,56.3,48.0,30.50,WNW,293,0.0,0.0,71,0.00,,,-99.99,wx200d/1.3,2013-07-10 08:00:00,
2013-07-10 01:15:00,56.3,48.0,30.50,West,273,0.0,2.7,72,0.00,,,-99.99,wx200d/1.3,2013-07-10 08:15:00,
2013-07-10 01:30:00,56.3,48.0,30.50,NE,44,0.0,0.0,73,0.00,,,-99.99,wx200d/1.3,2013-07-10 08:30:00,
2013-07-10 01:45:00,56.3,48.0,30.50,East,90,0.0,0.0,74,0.00,,,-99.99,wx200d/1.3,2013-07-10 08:45:00,
2013-07-10 02:00:00,56.1,48.0,30.47,East,87,0.0,0.0,74,0.00,,,-99.99,wx200d/1.3,2013-07-10 09:00:00,
2013-07-10 02:15:00,56.1,48.0,30.47,East,87,0.0,0.0,74,0.00,,,-99.99,wx200d/1.3,2013-07-10 09:15:00,
2013-07-10 02:30:00,55.8,48.0,30.50,West,271,0.0,0.0,74,0.00,,,-99.99,wx200d/1.3,2013-07-10 09:30:00,
2013-07-10 02:45:00,55.4,48.0,30.50,West,271,0.0,0.0,74,0.00,,,-99.99,wx200d/1.3,2013-07-10 09:45:00,
2013-07-10 03:00:00,55.2,48.0,30.50,West,260,0.0,0.0,75,0.00,,,-99.99,wx200d/1.3,2013-07-10 10:00:00,
2013-07-10 03:15:00,55.4,48.0,30.47,West,260,0.0,0.0,75,0.00,,,-99.99,wx200d/1.3,2013-07-10 10:15:00,
2013-07-10 03:30:00,55.2,48.0,30.47,West,260,0.0,0.0,75,0.00,,,-99.99,wx200d/1.3,2013-07-10 10:30:00,
2013-07-10 03:45:00,54.9,48.0,30.47,West,268,0.0,0.0,76,0.00,,,-99.99,wx200d/1.3,2013-07-10 10:45:00,
2013-07-10 04:00:00,55.0,48.0,30.47,West,266,0.0,0.0,77,0.00,,,-99.99,wx200d/1.3,2013-07-10 11:00:00,
2013-07-10 04:15:00,54.9,48.0,30.47,West,267,0.0,0.0,78,0.00,,,-99.99,wx200d/1.3,2013-07-10 11:15:00,
2013-07-10 04:30:00,55.0,48.0,30.47,West,277,0.0,0.0,78,0.00,,,-99.99,wx200d/1.3,2013-07-10 11:30:00,
2013-07-10 04:45:00,54.9,48.0,30.47,West,265,0.0,0.0,78,0.00,,,-99.99,wx200d/1.3,2013-07-10 11:45:00,
2013-07-10 05:00:00,55.0,48.0,30.50,West,273,0.0,0.0,79,0.00,,,-99.99,wx200d/1.3,2013-07-10 12:00:00,
2013-07-10 05:15:00,54.9,48.0,30.47,WSW,248,0.0,0.0,79,0.00,,,-99.99,wx200d/1.3,2013-07-10 12:15:00,
2013-07-10 05:30:00,55.0,50.0,30.50,West,280,0.0,0.0,80,0.00,,,-99.99,wx200d/1.3,2013-07-10 12:30:00,
2013-07-10 05:45:00,55.2,50.0,30.50,West,280,0.0,0.0,80,0.00,,,-99.99,wx200d/1.3,2013-07-10 12:45:00,
2013-07-10 06:00:00,55.4,50.0,30.50,North,357,0.0,0.0,80,0.00,,,-99.99,wx200d/1.3,2013-07-10 13:00:00,
2013-07-10 06:15:00,55.6,50.0,30.47,NE,54,0.0,0.0,80,0.00,,,-99.99,wx200d/1.3,2013-07-10 13:15:00,
2013-07-10 06:30:00,55.6,50.0,30.50,ENE,71,0.0,0.0,80,0.00,,,-99.99,wx200d/1.3,2013-07-10 13:30:00,
2013-07-10 06:45:00,55.9,50.0,30.47,ENE,65,0.0,0.0,80,0.00,,,-99.99,wx200d/1.3,2013-07-10 13:45:00,
2013-07-10 07:00:00,56.3,52.0,30.47,WNW,283,0.0,0.0,80,0.00,,,-99.99,wx200d/1.3,2013-07-10 14:00:00,
2013-07-10 07:15:00,57.2,50.0,30.50,WNW,283,0.0,0.0,79,0.00,,,-99.99,wx200d/1.3,2013-07-10 14:15:00,
2013-07-10 07:30:00,57.9,50.0,30.50,West,276,0.0,0.0,77,0.00,,,-99.99,wx200d/1.3,2013-07-10 14:30:00,
2013-07-10 07:45:00,58.6,50.0,30.50,West,276,0.0,0.0,70,0.00,,,-99.99,wx200d/1.3,2013-07-10 14:45:00,
2013-07-10 08:00:00,58.6,48.0,30.50,West,271,0.0,0.0,67,0.00,,,-99.99,wx200d/1.3,2013-07-10 15:00:00,
2013-07-10 08:15:00,59.4,45.0,30.50,West,269,0.0,0.0,57,0.00,,,-99.99,wx200d/1.3,2013-07-10 15:15:00,
2013-07-10 08:30:00,60.6,46.0,30.50,West,269,0.0,0.0,57,0.00,,,-99.99,wx200d/1.3,2013-07-10 15:30:00,
2013-07-10 08:45:00,61.3,43.0,30.50,East,89,0.0,0.0,50,0.00,,,-99.99,wx200d/1.3,2013-07-10 15:45:00,
2013-07-10 09:00:00,62.4,41.0,30.50,West,265,0.0,0.0,46,0.00,,,-99.99,wx200d/1.3,2013-07-10 16:00:00,
2013-07-10 09:15:00,62.6,39.0,30.50,West,276,0.0,2.2,43,0.00,,,-99.99,wx200d/1.3,2013-07-10 16:15:00,
2013-07-10 09:30:00,63.9,41.0,30.50,West,267,0.0,0.0,42,0.00,,,-99.99,wx200d/1.3,2013-07-10 16:30:00,
2013-07-10 09:45:00,64.8,37.0,30.50,WNW,293,0.0,0.0,37,0.00,,,-99.99,wx200d/1.3,2013-07-10 16:45:00,
2013-07-10 10:00:00,66.4,37.0,30.50,West,263,0.0,2.2,35,0.00,,,-99.99,wx200d/1.3,2013-07-10 17:00:00,
2013-07-10 10:15:00,68.0,36.0,30.50,East,81,3.6,3.6,31,0.00,,,-99.99,wx200d/1.3,2013-07-10 17:15:00,
2013-07-10 10:30:00,67.6,37.0,30.50,SE,126,2.2,0.0,32,0.00,,,-99.99,wx200d/1.3,2013-07-10 17:30:00,
2013-07-10 10:45:00,66.7,34.0,30.50,WNW,283,0.0,0.0,30,0.00,,,-99.99,wx200d/1.3,2013-07-10 17:45:00,
2013-07-10 11:00:00,65.8,36.0,30.50,SW,225,0.0,0.0,33,0.00,,,-99.99,wx200d/1.3,2013-07-10 18:00:00,
2013-07-10 11:15:00,65.3,37.0,30.50,West,261,0.0,2.7,34,0.00,,,-99.99,wx200d/1.3,2013-07-10 18:15:00,
2013-07-10 11:30:00,64.8,36.0,30.50,West,265,0.0,0.0,34,0.00,,,-99.99,wx200d/1.3,2013-07-10 18:30:00,
2013-07-10 11:45:00,64.4,36.0,30.50,ESE,108,0.0,0.0,34,0.00,,,-99.99,wx200d/1.3,2013-07-10 18:45:00,
2013-07-10 12:00:00,64.4,36.0,30.50,WSW,256,0.0,0.0,34,0.00,,,-99.99,wx200d/1.3,2013-07-10 19:00:00,
2013-07-10 12:15:00,64.8,36.0,30.50,NW,316,0.0,0.0,34,0.00,,,-99.99,wx200d/1.3,2013-07-10 19:15:00,
2013-07-10 12:30:00,65.1,34.0,30.50,WNW,285,0.0,2.2,33,0.00,,,-99.99,wx200d/1.3,2013-07-10 19:30:00,
2013-07-10 12:45:00,65.5,36.0,30.50,East,85,2.7,4.0,33,0.00,,,-99.99,wx200d/1.3,2013-07-10 19:45:00,
2013-07-10 13:00:00,65.7,36.0,30.50,ENE,76,0.0,0.0,33,0.00,,,-99.99,wx200d/1.3,2013-07-10 20:00:00,
2013-07-10 13:15:00,66.6,36.0,30.47,West,279,0.0,0.0,32,0.00,,,-99.99,wx200d/1.3,2013-07-10 20:15:00,
2013-07-10 13:30:00,66.9,34.0,30.47,NNW,337,0.0,0.0,31,0.00,,,-99.99,wx200d/1.3,2013-07-10 20:30:00,
2013-07-10 13:45:00,66.2,36.0,30.50,WNW,286,3.6,3.6,32,0.00,,,-99.99,wx200d/1.3,2013-07-10 20:45:00,
2013-07-10 14:00:00,66.6,36.0,30.50,WNW,298,0.0,0.0,32,0.00,,,-99.99,wx200d/1.3,2013-07-10 21:00:00,
2013-07-10 14:15:00,66.7,36.0,30.47,West,276,2.2,3.1,32,0.00,,,-99.99,wx200d/1.3,2013-07-10 21:15:00,
2013-07-10 14:30:00,64.8,36.0,30.47,SSE,160,3.1,0.0,34,0.00,,,-99.99,wx200d/1.3,2013-07-10 21:30:00,
2013-07-10 14:45:00,64.8,36.0,30.45,WNW,288,3.1,4.0,34,0.00,,,-99.99,wx200d/1.3,2013-07-10 21:45:00,
2013-07-10 15:00:00,64.4,36.0,30.45,West,265,3.6,3.6,35,0.00,,,-99.99,wx200d/1.3,2013-07-10 22:00:00,
2013-07-10 15:15:00,64.8,36.0,30.45,WSW,248,3.6,3.6,35,0.00,,,-99.99,wx200d/1.3,2013-07-10 22:15:00,
2013-07-10 15:30:00,65.7,37.0,30.45,NW,313,2.7,0.0,34,0.00,,,-99.99,wx200d/1.3,2013-07-10 22:30:00,
2013-07-10 15:45:00,67.6,37.0,30.45,ENE,73,2.2,4.0,32,0.00,,,-99.99,wx200d/1.3,2013-07-10 22:45:00,
2013-07-10 16:00:00,68.5,36.0,30.47,East,90,3.6,5.8,30,0.00,,,-99.99,wx200d/1.3,2013-07-10 23:00:00,
2013-07-10 16:15:00,69.1,36.0,30.47,West,278,2.7,2.7,28,0.00,,,-99.99,wx200d/1.3,2013-07-10 23:15:00,
2013-07-10 16:30:00,67.6,36.0,30.45,West,269,3.1,3.1,31,0.00,,,-99.99,wx200d/1.3,2013-07-10 23:30:00,
2013-07-10 16:45:00,66.6,36.0,30.45,East,87,3.1,3.1,33,0.00,,,-99.99,wx200d/1.3,2013-07-10 23:45:00,
2013-07-10 17:00:00,67.1,37.0,30.45,East,82,0.0,0.0,32,0.00,,,-99.99,wx200d/1.3,2013-07-11 00:00:00,
2013-07-10 17:15:00,66.7,36.0,30.45,West,279,3.1,0.0,32,0.00,,,-99.99,wx200d/1.3,2013-07-11 00:15:00,
2013-07-10 17:30:00,65.5,36.0,30.45,WNW,282,0.0,0.0,33,0.00,,,-99.99,wx200d/1.3,2013-07-11 00:30:00,
2013-07-10 17:45:00,64.0,36.0,30.45,WSW,252,2.7,2.7,35,0.00,,,-99.99,wx200d/1.3,2013-07-11 00:45:00,
2013-07-10 18:00:00,63.1,36.0,30.45,SW,218,2.7,0.0,36,0.00,,,-99.99,wx200d/1.3,2013-07-11 01:00:00,
2013-07-10 18:15:00,62.4,37.0,30.45,SSE,149,2.2,3.1,38,0.00,,,-99.99,wx200d/1.3,2013-07-11 01:15:00,
2013-07-10 18:30:00,61.9,39.0,30.45,SW,225,0.0,5.4,41,0.00,,,-99.99,wx200d/1.3,2013-07-11 01:30:00,
2013-07-10 18:45:00,60.8,39.0,30.45,East,86,2.7,0.0,45,0.00,,,-99.99,wx200d/1.3,2013-07-11 01:45:00,
2013-07-10 19:00:00,60.3,41.0,30.45,West,276,2.2,2.2,47,0.00,,,-99.99,wx200d/1.3,2013-07-11 02:00:00,
2013-07-10 19:15:00,59.2,43.0,30.45,West,264,0.0,0.0,53,0.00,,,-99.99,wx200d/1.3,2013-07-11 02:15:00,
2013-07-10 19:30:00,58.3,43.0,30.45,WNW,288,0.0,3.1,56,0.00,,,-99.99,wx200d/1.3,2013-07-11 02:30:00,
2013-07-10 19:45:00,58.1,45.0,30.45,West,276,2.2,2.2,57,0.00,,,-99.99,wx200d/1.3,2013-07-11 02:45:00,
2013-07-10 20:00:00,57.6,43.0,30.45,West,274,0.0,2.7,59,0.00,,,-99.99,wx200d/1.3,2013-07-11 03:00:00,
2013-07-10 20:15:00,57.2,45.0,30.45,WNW,300,2.2,2.2,61,0.00,,,-99.99,wx200d/1.3,2013-07-11 03:15:00,
2013-07-10 20:30:00,56.8,45.0,30.45,West,272,2.2,3.1,64,0.00,,,-99.99,wx200d/1.3,2013-07-11 03:30:00,
2013-07-10 20:45:00,56.5,45.0,30.45,West,272,0.0,0.0,64,0.00,,,-99.99,wx200d/1.3,2013-07-11 03:45:00,
2013-07-10 21:00:00,56.1,45.0,30.45,West,265,0.0,0.0,67,0.00,,,-99.99,wx200d/1.3,2013-07-11 04:00:00,
2013-07-10 21:15:00,55.8,45.0,30.45,West,274,0.0,0.0,69,0.00,,,-99.99,wx200d/1.3,2013-07-11 04:15:00,
2013-07-10 21:30:00,55.8,46.0,30.45,West,266,0.0,0.0,70,0.00,,,-99.99,wx200d/1.3,2013-07-11 04:30:00,
2013-07-10 21:45:00,55.4,46.0,30.45,NNW,331,0.0,0.0,70,0.00,,,-99.99,wx200d/1.3,2013-07-11 04:45:00,
2013-07-10 22:00:00,55.2,46.0,30.47,West,265,0.0,0.0,72,0.00,,,-99.99,wx200d/1.3,2013-07-11 05:00:00,
2013-07-10 22:15:00,55.8,46.0,30.47,West,265,0.0,0.0,72,0.00,,,-99.99,wx200d/1.3,2013-07-11 05:15:00,
2013-07-10 22:30:00,55.8,46.0,30.47,WNW,291,0.0,0.0,71,0.00,,,-99.99,wx200d/1.3,2013-07-11 05:30:00,
2013-07-10 22:45:00,55.9,46.0,30.47,East,94,0.0,0.0,73,0.00,,,-99.99,wx200d/1.3,2013-07-11 05:45:00,
2013-07-10 23:00:00,55.9,46.0,30.47,East,86,0.0,0.0,73,0.00,,,-99.99,wx200d/1.3,2013-07-11 06:00:00,
2013-07-10 23:15:00,55.9,48.0,30.45,South,186,0.0,0.0,74,0.00,,,-99.99,wx200d/1.3,2013-07-11 06:15:00,
2013-07-10 23:30:00,55.4,48.0,30.47,ESE,107,0.0,2.7,74,0.00,,,-99.99,wx200d/1.3,2013-07-11 06:30:00,
2013-07-10 23:45:00,55.4,48.0,30.47,West,275,0.0,0.0,76,0.00,,,-99.99,wx200d/1.3,2013-07-11 06:45:00,